sensor_id;sensor_type;location;lat;lon;timestamp;P1;durP1;ratioP1;P2;durP2;ratioP2
16600;SDS011;34891;48.164;11.572;2023-07-13T00:01:52;4.90;;;3.25;;
16600;SDS011;34891;48.164;11.572;2023-07-13T00:06:55;4.28;;;2.67;;
16600;SDS011;34891;48.164;11.572;2023-07-13T00:12:00;6.30;;;3.25;;
16600;SDS011;34891;48.164;11.572;2023-07-13T00:17:03;6.95;;;3.30;;
16600;SDS011;34891;48.164;11.572;2023-07-13T00:22:06;4.28;;;1.67;;
16600;SDS011;34891;48.164;11.572;2023-07-13T00:27:10;7.87;;;3.00;;
16600;SDS011;34891;48.164;11.572;2023-07-13T00:32:13;4.15;;;2.45;;
16600;SDS011;34891;48.164;11.572;2023-07-13T00:37:15;4.97;;;2.80;;
16600;SDS011;34891;48.164;11.572;2023-07-13T00:42:19;7.73;;;2.60;;
16600;SDS011;34891;48.164;11.572;2023-07-13T00:47:22;4.78;;;1.98;;
16600;SDS011;34891;48.164;11.572;2023-07-13T00:52:25;4.17;;;1.97;;
16600;SDS011;34891;48.164;11.572;2023-07-13T00:57:30;3.72;;;2.00;;
16600;SDS011;34891;48.164;11.572;2023-07-13T01:02:34;4.72;;;2.22;;
16600;SDS011;34891;48.164;11.572;2023-07-13T01:07:38;5.60;;;2.50;;
16600;SDS011;34891;48.164;11.572;2023-07-13T01:12:42;4.03;;;1.47;;
16600;SDS011;34891;48.164;11.572;2023-07-13T01:17:44;3.45;;;1.92;;
16600;SDS011;34891;48.164;11.572;2023-07-13T01:22:49;2.50;;;1.73;;
16600;SDS011;34891;48.164;11.572;2023-07-13T01:27:52;5.00;;;2.00;;
16600;SDS011;34891;48.164;11.572;2023-07-13T01:32:54;3.80;;;2.40;;
16600;SDS011;34891;48.164;11.572;2023-07-13T01:37:58;5.63;;;2.38;;
16600;SDS011;34891;48.164;11.572;2023-07-13T01:43:02;3.72;;;1.95;;
16600;SDS011;34891;48.164;11.572;2023-07-13T01:48:05;4.05;;;2.35;;
16600;SDS011;34891;48.164;11.572;2023-07-13T01:58:12;4.72;;;2.70;;
16600;SDS011;34891;48.164;11.572;2023-07-13T02:03:15;5.25;;;2.42;;
16600;SDS011;34891;48.164;11.572;2023-07-13T02:08:19;4.72;;;2.70;;
16600;SDS011;34891;48.164;11.572;2023-07-13T02:13:23;5.60;;;2.92;;
16600;SDS011;34891;48.164;11.572;2023-07-13T02:18:26;7.28;;;2.80;;
16600;SDS011;34891;48.164;11.572;2023-07-13T02:23:29;7.90;;;2.90;;
16600;SDS011;34891;48.164;11.572;2023-07-13T02:28:33;8.03;;;3.00;;
16600;SDS011;34891;48.164;11.572;2023-07-13T02:33:36;6.43;;;3.00;;
16600;SDS011;34891;48.164;11.572;2023-07-13T02:38:38;4.47;;;2.83;;
16600;SDS011;34891;48.164;11.572;2023-07-13T02:43:42;6.07;;;2.90;;
16600;SDS011;34891;48.164;11.572;2023-07-13T02:48:45;7.07;;;3.13;;
16600;SDS011;34891;48.164;11.572;2023-07-13T02:53:48;6.93;;;2.73;;
16600;SDS011;34891;48.164;11.572;2023-07-13T02:58:52;4.37;;;2.60;;
16600;SDS011;34891;48.164;11.572;2023-07-13T03:03:54;4.15;;;2.30;;
16600;SDS011;34891;48.164;11.572;2023-07-13T03:08:57;4.22;;;2.35;;
16600;SDS011;34891;48.164;11.572;2023-07-13T03:14:02;8.63;;;3.20;;
16600;SDS011;34891;48.164;11.572;2023-07-13T03:19:05;9.45;;;3.53;;
16600;SDS011;34891;48.164;11.572;2023-07-13T03:24:07;5.63;;;3.40;;
16600;SDS011;34891;48.164;11.572;2023-07-13T03:29:12;9.88;;;3.78;;
16600;SDS011;34891;48.164;11.572;2023-07-13T03:34:14;9.05;;;3.80;;
16600;SDS011;34891;48.164;11.572;2023-07-13T03:39:17;7.93;;;3.90;;
16600;SDS011;34891;48.164;11.572;2023-07-13T03:44:21;6.67;;;3.50;;
16600;SDS011;34891;48.164;11.572;2023-07-13T03:49:24;4.32;;;2.15;;
16600;SDS011;34891;48.164;11.572;2023-07-13T03:54:26;8.45;;;3.20;;
16600;SDS011;34891;48.164;11.572;2023-07-13T03:59:31;4.50;;;2.30;;
16600;SDS011;34891;48.164;11.572;2023-07-13T04:04:34;6.45;;;2.15;;
16600;SDS011;34891;48.164;11.572;2023-07-13T04:09:37;5.47;;;2.70;;
16600;SDS011;34891;48.164;11.572;2023-07-13T04:14:42;4.05;;;1.88;;
16600;SDS011;34891;48.164;11.572;2023-07-13T04:19:45;5.10;;;2.35;;
16600;SDS011;34891;48.164;11.572;2023-07-13T04:24:47;4.70;;;2.30;;
16600;SDS011;34891;48.164;11.572;2023-07-13T04:34:55;4.47;;;2.22;;
16600;SDS011;34891;48.164;11.572;2023-07-13T04:40:00;2.88;;;1.75;;
16600;SDS011;34891;48.164;11.572;2023-07-13T04:45:03;7.63;;;3.20;;
16600;SDS011;34891;48.164;11.572;2023-07-13T04:50:07;5.22;;;2.47;;
16600;SDS011;34891;48.164;11.572;2023-07-13T04:55:12;5.53;;;2.20;;
16600;SDS011;34891;48.164;11.572;2023-07-13T05:00:15;8.75;;;2.70;;
16600;SDS011;34891;48.164;11.572;2023-07-13T05:05:19;6.30;;;2.63;;
16600;SDS011;34891;48.164;11.572;2023-07-13T05:10:23;5.82;;;2.25;;
16600;SDS011;34891;48.164;11.572;2023-07-13T05:15:26;5.57;;;2.90;;
16600;SDS011;34891;48.164;11.572;2023-07-13T05:20:30;5.70;;;2.80;;
16600;SDS011;34891;48.164;11.572;2023-07-13T05:25:33;5.00;;;2.53;;
16600;SDS011;34891;48.164;11.572;2023-07-13T05:30:36;5.30;;;2.53;;
16600;SDS011;34891;48.164;11.572;2023-07-13T05:35:40;4.03;;;2.47;;
16600;SDS011;34891;48.164;11.572;2023-07-13T05:40:43;5.43;;;2.53;;
16600;SDS011;34891;48.164;11.572;2023-07-13T05:45:46;7.55;;;2.97;;
16600;SDS011;34891;48.164;11.572;2023-07-13T05:50:51;6.18;;;2.47;;
16600;SDS011;34891;48.164;11.572;2023-07-13T05:55:54;4.75;;;2.45;;
16600;SDS011;34891;48.164;11.572;2023-07-13T06:01:01;4.80;;;2.53;;
16600;SDS011;34891;48.164;11.572;2023-07-13T06:06:06;4.88;;;2.13;;
16600;SDS011;34891;48.164;11.572;2023-07-13T06:11:12;6.55;;;2.50;;
16600;SDS011;34891;48.164;11.572;2023-07-13T06:16:16;5.15;;;2.50;;
16600;SDS011;34891;48.164;11.572;2023-07-13T06:21:20;5.85;;;2.13;;
16600;SDS011;34891;48.164;11.572;2023-07-13T06:26:23;5.75;;;2.05;;
16600;SDS011;34891;48.164;11.572;2023-07-13T06:31:26;2.47;;;1.80;;
16600;SDS011;34891;48.164;11.572;2023-07-13T06:41:33;3.13;;;1.80;;
16600;SDS011;34891;48.164;11.572;2023-07-13T06:46:36;4.20;;;1.90;;
16600;SDS011;34891;48.164;11.572;2023-07-13T06:51:39;4.47;;;2.10;;
16600;SDS011;34891;48.164;11.572;2023-07-13T06:56:43;4.43;;;2.15;;
16600;SDS011;34891;48.164;11.572;2023-07-13T07:01:46;4.80;;;2.10;;
16600;SDS011;34891;48.164;11.572;2023-07-13T07:06:49;4.50;;;2.00;;
16600;SDS011;34891;48.164;11.572;2023-07-13T07:11:53;3.15;;;2.17;;
16600;SDS011;34891;48.164;11.572;2023-07-13T07:17:04;5.43;;;2.33;;
16600;SDS011;34891;48.164;11.572;2023-07-13T07:27:12;3.63;;;2.08;;
16600;SDS011;34891;48.164;11.572;2023-07-13T07:32:18;4.28;;;1.73;;
16600;SDS011;34891;48.164;11.572;2023-07-13T07:37:24;4.28;;;1.80;;
16600;SDS011;34891;48.164;11.572;2023-07-13T07:42:48;2.75;;;1.80;;
16600;SDS011;34891;48.164;11.572;2023-07-13T07:47:51;4.63;;;1.98;;
16600;SDS011;34891;48.164;11.572;2023-07-13T07:52:56;4.90;;;2.20;;
16600;SDS011;34891;48.164;11.572;2023-07-13T07:58:00;4.53;;;2.20;;
16600;SDS011;34891;48.164;11.572;2023-07-13T08:03:06;6.07;;;2.25;;
16600;SDS011;34891;48.164;11.572;2023-07-13T08:08:12;2.50;;;1.77;;
16600;SDS011;34891;48.164;11.572;2023-07-13T08:13:17;7.30;;;1.95;;
16600;SDS011;34891;48.164;11.572;2023-07-13T08:18:20;3.75;;;2.15;;
16600;SDS011;34891;48.164;11.572;2023-07-13T08:28:28;5.23;;;2.60;;
16600;SDS011;34891;48.164;11.572;2023-07-13T08:33:31;5.32;;;2.00;;
16600;SDS011;34891;48.164;11.572;2023-07-13T08:38:34;4.07;;;2.00;;
16600;SDS011;34891;48.164;11.572;2023-07-13T08:43:38;3.90;;;1.60;;
16600;SDS011;34891;48.164;11.572;2023-07-13T08:48:43;4.38;;;1.70;;
16600;SDS011;34891;48.164;11.572;2023-07-13T08:53:48;9.93;;;1.80;;
16600;SDS011;34891;48.164;11.572;2023-07-13T08:58:54;4.43;;;1.60;;
16600;SDS011;34891;48.164;11.572;2023-07-13T09:03:59;3.05;;;1.83;;
16600;SDS011;34891;48.164;11.572;2023-07-13T09:09:06;2.78;;;1.45;;
16600;SDS011;34891;48.164;11.572;2023-07-13T09:14:21;8.90;;;1.60;;
16600;SDS011;34891;48.164;11.572;2023-07-13T09:19:27;10.77;;;2.20;;
16600;SDS011;34891;48.164;11.572;2023-07-13T09:24:35;8.95;;;1.60;;
16600;SDS011;34891;48.164;11.572;2023-07-13T09:29:41;6.10;;;1.73;;
16600;SDS011;34891;48.164;11.572;2023-07-13T09:34:49;4.10;;;1.77;;
16600;SDS011;34891;48.164;11.572;2023-07-13T09:39:52;6.30;;;1.67;;
16600;SDS011;34891;48.164;11.572;2023-07-13T09:44:57;4.57;;;1.70;;
16600;SDS011;34891;48.164;11.572;2023-07-13T09:50:01;4.47;;;1.77;;
16600;SDS011;34891;48.164;11.572;2023-07-13T09:55:12;5.60;;;1.85;;
16600;SDS011;34891;48.164;11.572;2023-07-13T10:00:27;5.88;;;1.70;;
16600;SDS011;34891;48.164;11.572;2023-07-13T10:05:40;2.28;;;1.55;;
16600;SDS011;34891;48.164;11.572;2023-07-13T10:10:43;4.03;;;1.70;;
16600;SDS011;34891;48.164;11.572;2023-07-13T10:15:48;4.45;;;2.00;;
16600;SDS011;34891;48.164;11.572;2023-07-13T10:20:51;4.65;;;1.67;;
16600;SDS011;34891;48.164;11.572;2023-07-13T10:26:15;3.58;;;1.40;;
16600;SDS011;34891;48.164;11.572;2023-07-13T10:31:21;3.53;;;1.65;;
16600;SDS011;34891;48.164;11.572;2023-07-13T10:36:30;1.40;;;1.30;;
16600;SDS011;34891;48.164;11.572;2023-07-13T10:41:34;4.57;;;1.80;;
16600;SDS011;34891;48.164;11.572;2023-07-13T10:46:40;3.10;;;1.85;;
16600;SDS011;34891;48.164;11.572;2023-07-13T10:51:44;2.58;;;1.40;;
16600;SDS011;34891;48.164;11.572;2023-07-13T10:56:49;5.43;;;1.77;;
16600;SDS011;34891;48.164;11.572;2023-07-13T11:01:57;3.10;;;1.80;;
16600;SDS011;34891;48.164;11.572;2023-07-13T11:07:00;3.63;;;1.80;;
16600;SDS011;34891;48.164;11.572;2023-07-13T11:12:26;2.28;;;1.50;;
16600;SDS011;34891;48.164;11.572;2023-07-13T11:17:37;4.82;;;1.90;;
16600;SDS011;34891;48.164;11.572;2023-07-13T11:22:42;3.35;;;1.70;;
16600;SDS011;34891;48.164;11.572;2023-07-13T11:27:46;3.50;;;1.70;;
16600;SDS011;34891;48.164;11.572;2023-07-13T11:33:01;2.92;;;1.40;;
16600;SDS011;34891;48.164;11.572;2023-07-13T11:38:10;4.95;;;2.10;;
16600;SDS011;34891;48.164;11.572;2023-07-13T11:43:15;4.55;;;1.80;;
16600;SDS011;34891;48.164;11.572;2023-07-13T11:48:24;5.03;;;2.10;;
16600;SDS011;34891;48.164;11.572;2023-07-13T11:53:28;3.30;;;1.83;;
16600;SDS011;34891;48.164;11.572;2023-07-13T11:58:32;5.25;;;1.70;;
16600;SDS011;34891;48.164;11.572;2023-07-13T12:03:37;4.97;;;2.03;;
16600;SDS011;34891;48.164;11.572;2023-07-13T12:08:42;6.65;;;2.20;;
16600;SDS011;34891;48.164;11.572;2023-07-13T12:13:46;3.70;;;1.58;;
16600;SDS011;34891;48.164;11.572;2023-07-13T12:18:52;3.40;;;1.83;;
16600;SDS011;34891;48.164;11.572;2023-07-13T12:23:55;2.88;;;1.55;;
16600;SDS011;34891;48.164;11.572;2023-07-13T12:28:58;3.53;;;1.42;;
16600;SDS011;34891;48.164;11.572;2023-07-13T12:34:06;3.40;;;1.58;;
16600;SDS011;34891;48.164;11.572;2023-07-13T12:39:13;5.88;;;1.85;;
16600;SDS011;34891;48.164;11.572;2023-07-13T12:44:18;2.95;;;1.60;;
16600;SDS011;34891;48.164;11.572;2023-07-13T12:49:28;4.40;;;1.92;;
16600;SDS011;34891;48.164;11.572;2023-07-13T12:54:31;3.42;;;1.98;;
16600;SDS011;34891;48.164;11.572;2023-07-13T12:59:36;3.30;;;1.70;;
16600;SDS011;34891;48.164;11.572;2023-07-13T13:04:40;1.67;;;1.27;;
16600;SDS011;34891;48.164;11.572;2023-07-13T13:09:45;2.13;;;1.33;;
16600;SDS011;34891;48.164;11.572;2023-07-13T13:14:48;2.55;;;1.50;;
16600;SDS011;34891;48.164;11.572;2023-07-13T13:19:55;3.60;;;1.60;;
16600;SDS011;34891;48.164;11.572;2023-07-13T13:24:58;3.67;;;1.58;;
16600;SDS011;34891;48.164;11.572;2023-07-13T13:30:01;7.03;;;1.58;;
16600;SDS011;34891;48.164;11.572;2023-07-13T13:35:07;4.13;;;1.85;;
16600;SDS011;34891;48.164;11.572;2023-07-13T13:40:15;4.03;;;1.77;;
16600;SDS011;34891;48.164;11.572;2023-07-13T13:45:18;2.60;;;1.33;;
16600;SDS011;34891;48.164;11.572;2023-07-13T13:50:24;4.88;;;1.60;;
16600;SDS011;34891;48.164;11.572;2023-07-13T13:55:27;4.47;;;1.38;;
16600;SDS011;34891;48.164;11.572;2023-07-13T14:00:30;3.33;;;1.52;;
16600;SDS011;34891;48.164;11.572;2023-07-13T14:05:34;3.10;;;1.50;;
16600;SDS011;34891;48.164;11.572;2023-07-13T14:10:37;3.78;;;1.88;;
16600;SDS011;34891;48.164;11.572;2023-07-13T14:15:40;5.20;;;2.10;;
16600;SDS011;34891;48.164;11.572;2023-07-13T14:20:45;3.13;;;1.60;;
16600;SDS011;34891;48.164;11.572;2023-07-13T14:25:48;3.58;;;1.40;;
16600;SDS011;34891;48.164;11.572;2023-07-13T14:30:51;1.20;;;1.00;;
16600;SDS011;34891;48.164;11.572;2023-07-13T14:35:57;3.75;;;1.27;;
16600;SDS011;34891;48.164;11.572;2023-07-13T14:41:00;3.33;;;1.52;;
16600;SDS011;34891;48.164;11.572;2023-07-13T14:46:02;3.40;;;1.27;;
16600;SDS011;34891;48.164;11.572;2023-07-13T14:51:08;3.20;;;1.73;;
16600;SDS011;34891;48.164;11.572;2023-07-13T14:56:12;3.10;;;1.60;;
16600;SDS011;34891;48.164;11.572;2023-07-13T15:01:16;2.65;;;1.30;;
16600;SDS011;34891;48.164;11.572;2023-07-13T15:06:20;6.40;;;1.45;;
16600;SDS011;34891;48.164;11.572;2023-07-13T15:11:23;4.13;;;1.52;;
16600;SDS011;34891;48.164;11.572;2023-07-13T15:16:26;7.00;;;2.30;;
16600;SDS011;34891;48.164;11.572;2023-07-13T15:21:31;4.53;;;1.73;;
16600;SDS011;34891;48.164;11.572;2023-07-13T15:26:35;2.67;;;1.70;;
16600;SDS011;34891;48.164;11.572;2023-07-13T15:31:40;7.53;;;2.00;;
16600;SDS011;34891;48.164;11.572;2023-07-13T15:36:44;3.88;;;1.90;;
16600;SDS011;34891;48.164;11.572;2023-07-13T15:41:48;3.25;;;1.50;;
16600;SDS011;34891;48.164;11.572;2023-07-13T15:46:52;3.63;;;1.48;;
16600;SDS011;34891;48.164;11.572;2023-07-13T15:51:56;4.25;;;1.90;;
16600;SDS011;34891;48.164;11.572;2023-07-13T15:57:00;2.40;;;1.35;;
16600;SDS011;34891;48.164;11.572;2023-07-13T16:02:09;2.80;;;1.30;;
16600;SDS011;34891;48.164;11.572;2023-07-13T16:07:16;3.75;;;1.67;;
16600;SDS011;34891;48.164;11.572;2023-07-13T16:12:20;2.90;;;1.48;;
16600;SDS011;34891;48.164;11.572;2023-07-13T16:17:23;3.38;;;1.50;;
16600;SDS011;34891;48.164;11.572;2023-07-13T16:22:28;3.40;;;1.58;;
16600;SDS011;34891;48.164;11.572;2023-07-13T16:27:31;3.28;;;1.60;;
16600;SDS011;34891;48.164;11.572;2023-07-13T16:32:35;4.90;;;2.15;;
16600;SDS011;34891;48.164;11.572;2023-07-13T16:37:40;3.55;;;1.60;;
16600;SDS011;34891;48.164;11.572;2023-07-13T16:48:10;3.42;;;1.60;;
16600;SDS011;34891;48.164;11.572;2023-07-13T16:53:18;3.30;;;1.85;;
16600;SDS011;34891;48.164;11.572;2023-07-13T16:58:23;3.47;;;1.70;;
16600;SDS011;34891;48.164;11.572;2023-07-13T17:03:27;5.03;;;1.80;;
16600;SDS011;34891;48.164;11.572;2023-07-13T17:08:32;4.45;;;1.70;;
16600;SDS011;34891;48.164;11.572;2023-07-13T17:13:35;2.53;;;1.50;;
16600;SDS011;34891;48.164;11.572;2023-07-13T17:18:38;5.32;;;1.60;;
16600;SDS011;34891;48.164;11.572;2023-07-13T17:23:43;6.60;;;1.80;;
16600;SDS011;34891;48.164;11.572;2023-07-13T17:28:46;4.07;;;1.77;;
16600;SDS011;34891;48.164;11.572;2023-07-13T17:33:49;2.55;;;1.50;;
16600;SDS011;34891;48.164;11.572;2023-07-13T17:38:54;2.85;;;1.42;;
16600;SDS011;34891;48.164;11.572;2023-07-13T17:43:58;3.50;;;1.65;;
16600;SDS011;34891;48.164;11.572;2023-07-13T17:49:01;4.18;;;2.10;;
16600;SDS011;34891;48.164;11.572;2023-07-13T17:54:10;2.72;;;1.55;;
16600;SDS011;34891;48.164;11.572;2023-07-13T17:59:15;4.32;;;1.83;;
16600;SDS011;34891;48.164;11.572;2023-07-13T18:04:18;3.85;;;1.70;;
16600;SDS011;34891;48.164;11.572;2023-07-13T18:09:26;6.03;;;1.80;;
16600;SDS011;34891;48.164;11.572;2023-07-13T18:14:31;3.88;;;2.22;;
16600;SDS011;34891;48.164;11.572;2023-07-13T18:19:39;3.45;;;1.83;;
16600;SDS011;34891;48.164;11.572;2023-07-13T18:24:44;4.18;;;2.00;;
16600;SDS011;34891;48.164;11.572;2023-07-13T18:29:48;3.85;;;2.42;;
16600;SDS011;34891;48.164;11.572;2023-07-13T18:34:53;6.68;;;2.35;;
16600;SDS011;34891;48.164;11.572;2023-07-13T18:39:57;4.05;;;1.60;;
16600;SDS011;34891;48.164;11.572;2023-07-13T18:45:00;2.42;;;1.67;;
16600;SDS011;34891;48.164;11.572;2023-07-13T18:50:05;6.18;;;3.15;;
16600;SDS011;34891;48.164;11.572;2023-07-13T18:55:16;4.28;;;1.90;;
16600;SDS011;34891;48.164;11.572;2023-07-13T19:00:19;4.60;;;1.95;;
16600;SDS011;34891;48.164;11.572;2023-07-13T19:05:26;4.07;;;2.17;;
16600;SDS011;34891;48.164;11.572;2023-07-13T19:10:36;6.47;;;3.63;;
16600;SDS011;34891;48.164;11.572;2023-07-13T19:15:39;4.07;;;2.13;;
16600;SDS011;34891;48.164;11.572;2023-07-13T19:20:43;3.70;;;2.17;;
16600;SDS011;34891;48.164;11.572;2023-07-13T19:25:49;4.43;;;2.20;;
16600;SDS011;34891;48.164;11.572;2023-07-13T19:30:53;4.13;;;2.58;;
16600;SDS011;34891;48.164;11.572;2023-07-13T19:35:56;3.05;;;2.00;;
16600;SDS011;34891;48.164;11.572;2023-07-13T19:41:01;6.22;;;3.05;;
16600;SDS011;34891;48.164;11.572;2023-07-13T19:46:03;6.22;;;3.00;;
16600;SDS011;34891;48.164;11.572;2023-07-13T19:51:08;4.80;;;2.58;;
16600;SDS011;34891;48.164;11.572;2023-07-13T19:56:13;4.45;;;2.28;;
16600;SDS011;34891;48.164;11.572;2023-07-13T20:01:16;5.90;;;2.78;;
16600;SDS011;34891;48.164;11.572;2023-07-13T20:06:24;5.60;;;3.00;;
16600;SDS011;34891;48.164;11.572;2023-07-13T20:11:31;5.45;;;2.72;;
16600;SDS011;34891;48.164;11.572;2023-07-13T20:16:34;7.32;;;2.67;;
16600;SDS011;34891;48.164;11.572;2023-07-13T20:21:39;5.55;;;3.30;;
16600;SDS011;34891;48.164;11.572;2023-07-13T20:26:45;9.50;;;2.80;;
16600;SDS011;34891;48.164;11.572;2023-07-13T20:31:48;1.88;;;1.48;;
16600;SDS011;34891;48.164;11.572;2023-07-13T20:36:50;3.35;;;2.33;;
16600;SDS011;34891;48.164;11.572;2023-07-13T20:41:56;4.30;;;2.35;;
16600;SDS011;34891;48.164;11.572;2023-07-13T20:46:59;8.02;;;3.13;;
16600;SDS011;34891;48.164;11.572;2023-07-13T20:52:07;5.07;;;2.33;;
16600;SDS011;34891;48.164;11.572;2023-07-13T20:57:13;4.30;;;2.28;;
16600;SDS011;34891;48.164;11.572;2023-07-13T21:02:24;4.30;;;2.15;;
16600;SDS011;34891;48.164;11.572;2023-07-13T21:07:31;6.20;;;2.50;;
16600;SDS011;34891;48.164;11.572;2023-07-13T21:12:37;2.58;;;1.70;;
16600;SDS011;34891;48.164;11.572;2023-07-13T21:17:41;4.03;;;2.30;;
16600;SDS011;34891;48.164;11.572;2023-07-13T21:22:43;5.45;;;2.05;;
16600;SDS011;34891;48.164;11.572;2023-07-13T21:27:51;7.22;;;2.65;;
16600;SDS011;34891;48.164;11.572;2023-07-13T21:32:54;2.78;;;1.65;;
16600;SDS011;34891;48.164;11.572;2023-07-13T21:38:01;6.85;;;3.17;;
16600;SDS011;34891;48.164;11.572;2023-07-13T21:43:07;6.00;;;2.47;;
16600;SDS011;34891;48.164;11.572;2023-07-13T21:48:11;5.00;;;2.63;;
16600;SDS011;34891;48.164;11.572;2023-07-13T21:53:21;5.07;;;2.40;;
16600;SDS011;34891;48.164;11.572;2023-07-13T21:58:27;4.80;;;2.78;;
16600;SDS011;34891;48.164;11.572;2023-07-13T22:03:32;4.93;;;2.53;;
16600;SDS011;34891;48.164;11.572;2023-07-13T22:08:36;4.10;;;2.10;;
16600;SDS011;34891;48.164;11.572;2023-07-13T22:18:44;6.10;;;2.97;;
16600;SDS011;34891;48.164;11.572;2023-07-13T22:23:47;5.68;;;2.22;;
16600;SDS011;34891;48.164;11.572;2023-07-13T22:28:52;5.40;;;1.98;;
16600;SDS011;34891;48.164;11.572;2023-07-13T22:33:56;6.05;;;2.55;;
16600;SDS011;34891;48.164;11.572;2023-07-13T22:38:59;6.13;;;2.30;;
16600;SDS011;34891;48.164;11.572;2023-07-13T22:44:01;2.10;;;1.10;;
16600;SDS011;34891;48.164;11.572;2023-07-13T22:49:15;5.00;;;2.55;;
16600;SDS011;34891;48.164;11.572;2023-07-13T22:54:20;4.53;;;2.20;;
16600;SDS011;34891;48.164;11.572;2023-07-13T22:59:24;5.28;;;2.30;;
16600;SDS011;34891;48.164;11.572;2023-07-13T23:04:29;2.78;;;1.58;;
16600;SDS011;34891;48.164;11.572;2023-07-13T23:09:32;2.67;;;1.30;;
16600;SDS011;34891;48.164;11.572;2023-07-13T23:14:35;5.28;;;2.33;;
16600;SDS011;34891;48.164;11.572;2023-07-13T23:19:39;5.00;;;2.30;;
16600;SDS011;34891;48.164;11.572;2023-07-13T23:24:42;3.25;;;2.20;;
16600;SDS011;34891;48.164;11.572;2023-07-13T23:29:45;5.73;;;2.17;;
16600;SDS011;34891;48.164;11.572;2023-07-13T23:34:49;7.67;;;2.47;;
16600;SDS011;34891;48.164;11.572;2023-07-13T23:39:51;6.55;;;2.53;;
16600;SDS011;34891;48.164;11.572;2023-07-13T23:44:54;7.10;;;2.57;;
16600;SDS011;34891;48.164;11.572;2023-07-13T23:49:58;4.65;;;2.40;;
16600;SDS011;34891;48.164;11.572;2023-07-13T23:55:04;3.40;;;2.13;;
